Time;durP1;ratioP1;P1;durP2;ratioP2;P2;SDS_P1;SDS_P2;PMS_P1;PMS_P2;Temp;Humidity;BMP_temperature;BMP_pressure;BME280_temperature;BME280_humidity;BME280_pressure;Samples;Min_cycle;Max_cycle;Signal;HPM_P1;HPM_P2
2022/05/17 00:00:11;;;;;;;9.37;5.73;;;18.90;95.40;;;;;;21090474;28;20658;-70
2022/05/17 00:10:13;;;;;;;8.37;5.33;;;18.90;95.60;;;;;;21084191;28;20713;-69
2022/05/17 00:20:16;;;;;;;8.67;5.40;;;18.80;95.70;;;;;;21082479;28;20229;-68
2022/05/17 00:30:18;;;;;;;9.43;5.47;;;18.70;95.80;;;;;;21082213;28;20227;-71
2022/05/17 00:40:19;;;;;;;8.50;5.53;;;18.70;95.80;;;;;;21085637;28;20239;-65
2022/05/17 00:50:38;;;;;;;10.43;6.90;;;18.70;95.80;;;;;;21086973;28;20363;-64
2022/05/17 01:00:50;;;;;;;18.07;6.20;;;18.60;95.80;;;;;;21093509;28;20224;-66
2022/05/17 01:10:52;;;;;;;10.47;5.67;;;18.50;95.80;;;;;;21084727;28;20328;-69
2022/05/17 01:20:56;;;;;;;16.57;5.90;;;18.40;96.00;;;;;;21093955;28;20235;-71
2022/05/17 01:31:03;;;;;;;13.23;5.60;;;18.50;96.00;;;;;;21105616;28;20244;-70
2022/05/17 01:41:06;;;;;;;9.43;5.80;;;18.50;96.10;;;;;;21090902;28;20218;-66
2022/05/17 01:51:09;;;;;;;11.97;7.20;;;18.30;96.20;;;;;;21098100;28;20263;-66
2022/05/17 02:01:11;;;;;;;11.90;7.00;;;18.10;96.40;;;;;;21098532;28;20297;-69
2022/05/17 02:11:13;;;;;;;9.97;6.67;;;18.00;96.60;;;;;;21112128;28;20291;-69
2022/05/17 02:21:15;;;;;;;12.63;7.60;;;17.90;96.70;;;;;;21095803;28;20315;-68
2022/05/17 02:31:17;;;;;;;11.63;7.43;;;17.80;96.90;;;;;;21103462;28;20633;-66
2022/05/17 02:41:19;;;;;;;11.63;7.00;;;17.70;97.10;;;;;;21111695;28;20255;-68
2022/05/17 02:51:21;;;;;;;10.53;7.30;;;17.60;97.20;;;;;;21102874;28;20748;-68
2022/05/17 03:01:23;;;;;;;11.77;7.43;;;17.50;97.30;;;;;;21106040;28;20558;-67
2022/05/17 03:11:25;;;;;;;12.90;7.20;;;17.30;97.30;;;;;;21118198;28;20283;-71
2022/05/17 03:21:27;;;;;;;14.37;7.70;;;17.20;97.50;;;;;;21119685;28;20318;-67
2022/05/17 03:31:29;;;;;;;14.97;8.30;;;17.30;97.60;;;;;;21119977;28;20269;-66
2022/05/17 03:41:30;;;;;;;14.33;7.80;;;17.20;97.60;;;;;;21113519;28;20213;-71
2022/05/17 03:51:32;;;;;;;11.27;8.60;;;17.10;97.70;;;;;;21117641;28;20663;-71
2022/05/17 04:01:34;;;;;;;16.20;8.70;;;17.00;97.70;;;;;;21107185;28;20245;-68
2022/05/17 04:11:36;;;;;;;11.27;8.33;;;17.00;97.80;;;;;;21107984;28;20229;-69
2022/05/17 04:21:37;;;;;;;14.80;8.40;;;16.90;97.80;;;;;;21112702;28;20719;-65
2022/05/17 04:31:39;;;;;;;14.13;7.83;;;17.00;97.90;;;;;;21107950;28;20267;-62
2022/05/17 04:41:43;;;;;;;14.40;7.37;;;17.10;98.00;;;;;;21104859;28;20209;-66
2022/05/17 04:51:45;;;;;;;14.40;8.57;;;17.20;98.00;;;;;;21111599;28;20255;-66
2022/05/17 05:01:47;;;;;;;10.53;8.00;;;17.20;97.80;;;;;;21093929;28;20303;-66
2022/05/17 05:11:49;;;;;;;12.13;8.87;;;17.20;97.90;;;;;;21107737;28;20236;-68
2022/05/17 05:21:51;;;;;;;13.53;8.67;;;17.50;98.00;;;;;;21114855;28;20261;-70
2022/05/17 05:31:52;;;;;;;14.10;8.87;;;17.70;97.90;;;;;;21105041;28;20230;-68
2022/05/17 05:41:54;;;;;;;13.13;7.90;;;17.90;97.70;;;;;;21098465;28;20213;-67
2022/05/17 05:51:56;;;;;;;13.40;8.83;;;18.00;97.70;;;;;;21099201;28;20704;-65
2022/05/17 06:01:58;;;;;;;10.83;8.43;;;18.30;97.60;;;;;;21094311;28;20649;-69
2022/05/17 06:12:00;;;;;;;15.13;8.30;;;18.50;97.60;;;;;;21094619;28;20623;-69
2022/05/17 06:22:02;;;;;;;16.90;8.53;;;18.50;97.60;;;;;;21080204;28;20245;-67
2022/05/17 06:32:05;;;;;;;13.43;8.70;;;18.60;97.30;;;;;;21094800;28;20253;-62
2022/05/17 06:42:07;;;;;;;13.80;8.17;;;18.70;97.50;;;;;;21109353;28;20278;-65
2022/05/17 06:52:09;;;;;;;12.47;7.37;;;19.00;97.00;;;;;;21094649;28;20232;-62
2022/05/17 07:02:15;;;;;;;10.70;6.77;;;19.20;96.50;;;;;;21090141;28;20205;-63
2022/05/17 07:22:38;;;;;;;9.17;5.37;;;19.70;95.70;;;;;;21087864;28;20241;-66
2022/05/17 07:32:40;;;;;;;12.23;7.03;;;20.00;95.20;;;;;;21086569;28;20697;-62
2022/05/17 07:42:41;;;;;;;15.23;6.50;;;20.30;94.40;;;;;;21086972;28;20258;-63
2022/05/17 07:52:44;;;;;;;9.33;5.50;;;20.50;94.00;;;;;;21085883;28;20238;-63
2022/05/17 08:02:46;;;;;;;13.90;5.80;;;20.80;93.50;;;;;;21084951;28;20222;-61
2022/05/17 08:12:48;;;;;;;9.27;5.73;;;20.90;92.80;;;;;;21085227;28;20251;-63
2022/05/17 08:22:50;;;;;;;10.90;5.63;;;20.90;92.70;;;;;;21088976;28;20597;-64
2022/05/17 08:33:16;;;;;;;8.63;5.10;;;21.00;91.40;;;;;;21089510;28;20774;-67
2022/05/17 08:43:26;;;;;;;12.80;4.80;;;21.00;90.00;;;;;;21086682;28;20306;-64
2022/05/17 08:53:28;;;;;;;10.97;5.03;;;21.40;88.30;;;;;;21089075;28;20327;-62
2022/05/17 09:03:56;;;;;;;11.00;6.00;;;21.60;86.90;;;;;;21081068;28;20252;-63
2022/05/17 09:14:17;;;;;;;8.57;5.50;;;22.10;84.40;;;;;;21074890;28;20600;-64
2022/05/17 09:24:25;;;;;;;20.57;11.77;;;22.40;82.20;;;;;;21073968;28;20213;-66
2022/05/17 09:34:34;;;;;;;8.03;4.50;;;22.60;80.60;;;;;;21076082;28;20230;-64
2022/05/17 09:44:43;;;;;;;10.83;4.67;;;22.80;80.00;;;;;;21078114;28;20742;-62
2022/05/17 09:54:47;;;;;;;6.93;4.60;;;22.60;79.20;;;;;;21076805;28;20234;-67
2022/05/17 10:04:49;;;;;;;9.33;3.80;;;22.70;78.40;;;;;;21077259;28;20210;-63
2022/05/17 10:14:55;;;;;;;6.73;3.90;;;22.80;77.50;;;;;;21059791;28;20759;-65
2022/05/17 10:25:08;;;;;;;8.03;3.23;;;23.00;77.20;;;;;;21083857;28;20295;-62
2022/05/17 10:35:38;;;;;;;5.07;3.50;;;23.40;74.90;;;;;;21055598;28;20279;-65
2022/05/17 10:45:56;;;;;;;5.57;3.20;;;23.70;73.60;;;;;;21089988;28;20518;-66
2022/05/17 10:56:26;;;;;;;7.90;3.40;;;23.50;73.10;;;;;;21119095;28;20234;-62
2022/05/17 11:06:50;;;;;;;5.80;3.10;;;23.80;71.40;;;;;;21110473;28;20242;-62
2022/05/17 11:17:09;;;;;;;7.17;3.33;;;23.80;70.00;;;;;;21083360;28;20238;-61
2022/05/17 11:27:33;;;;;;;6.97;3.50;;;23.70;69.50;;;;;;21084416;28;20290;-62
2022/05/17 11:37:38;;;;;;;5.87;4.03;;;23.70;68.80;;;;;;21083089;28;20234;-62
2022/05/17 11:47:40;;;;;;;7.83;3.07;;;23.60;67.70;;;;;;21082906;28;20217;-63
2022/05/17 11:57:47;;;;;;;5.47;2.97;;;24.00;66.60;;;;;;21081488;28;20234;-64
2022/05/17 12:07:49;;;;;;;7.17;3.00;;;24.00;66.40;;;;;;21061812;28;20602;-71
2022/05/17 12:18:17;;;;;;;7.07;3.60;;;23.80;66.40;;;;;;21077253;28;20242;-69
2022/05/17 12:28:31;;;;;;;5.07;3.10;;;23.60;66.20;;;;;;21042500;28;20206;-66
2022/05/17 12:48:56;;;;;;;10.27;3.50;;;23.30;66.50;;;;;;21078318;28;20206;-65
2022/05/17 12:59:01;;;;;;;6.20;2.97;;;23.20;66.40;;;;;;21078500;28;20239;-64
2022/05/17 13:09:04;;;;;;;6.10;2.87;;;23.70;65.20;;;;;;21071850;28;20202;-65
2022/05/17 13:19:12;;;;;;;9.47;2.90;;;23.80;64.30;;;;;;21075038;28;20300;-65
2022/05/17 13:29:28;;;;;;;4.03;2.80;;;23.80;63.50;;;;;;21083835;28;20207;-64
2022/05/17 13:39:32;;;;;;;3.70;2.70;;;24.10;62.40;;;;;;21086445;28;20240;-71
2022/05/17 13:49:35;;;;;;;5.53;3.17;;;24.30;61.70;;;;;;21091336;28;20221;-72
2022/05/17 13:59:37;;;;;;;10.33;3.47;;;24.50;61.30;;;;;;21085415;28;20602;-74
2022/05/17 14:20:00;;;;;;;5.83;2.97;;;24.90;59.60;;;;;;21089625;28;20770;-72
2022/05/17 14:30:02;;;;;;;4.37;2.50;;;26.60;57.00;;;;;;21088684;28;20210;-68
2022/05/17 14:40:05;;;;;;;4.07;2.27;;;26.40;56.50;;;;;;21087834;28;20616;-65
2022/05/17 14:50:10;;;;;;;3.80;2.80;;;26.60;55.80;;;;;;21087791;28;20256;-68
2022/05/17 15:00:19;;;;;;;4.57;2.40;;;26.00;55.10;;;;;;21088010;28;20241;-71
2022/05/17 15:10:28;;;;;;;5.10;3.30;;;25.40;56.00;;;;;;21087750;28;20255;-73
2022/05/17 15:20:30;;;;;;;6.93;2.93;;;25.50;56.30;;;;;;21086671;28;20235;-70
2022/05/17 15:30:33;;;;;;;5.33;2.50;;;26.00;56.30;;;;;;21108793;28;20249;-71
2022/05/17 15:40:34;;;;;;;6.70;2.97;;;25.70;56.60;;;;;;21117596;28;20246;-68
2022/05/17 16:00:57;;;;;;;7.77;2.80;;;25.10;57.90;;;;;;21140494;28;20207;-70
2022/05/17 16:11:47;;;;;;;4.87;2.70;;;24.90;58.50;;;;;;21120644;28;20211;-68
2022/05/17 16:21:21;;;;;;;3.93;2.87;;;24.70;58.40;;;;;;21108119;28;20248;-68
2022/05/17 16:31:29;;;;;;;3.47;2.40;;;24.50;58.80;;;;;;21124220;28;20238;-66
2022/05/17 16:41:31;;;;;;;4.70;2.77;;;24.40;59.30;;;;;;21125055;28;20202;-69
2022/05/17 16:51:32;;;;;;;3.97;2.50;;;24.30;59.70;;;;;;21129594;28;20226;-63
2022/05/17 17:01:34;;;;;;;5.73;2.73;;;24.20;59.80;;;;;;21128231;28;20269;-64
2022/05/17 17:11:37;;;;;;;6.80;3.20;;;24.10;60.00;;;;;;21123503;28;20228;-65
2022/05/17 17:21:39;;;;;;;6.67;2.73;;;24.00;60.90;;;;;;21143460;28;20238;-65
2022/05/17 17:31:41;;;;;;;6.90;2.90;;;23.90;61.20;;;;;;21193287;28;20246;-64
2022/05/17 17:41:43;;;;;;;7.70;3.00;;;23.80;61.60;;;;;;21125521;28;20207;-70
2022/05/17 17:51:44;;;;;;;14.13;4.03;;;23.80;62.30;;;;;;21123914;28;20289;-65
2022/05/17 18:01:48;;;;;;;7.60;3.20;;;23.70;63.00;;;;;;21211971;28;20247;-64
2022/05/17 18:11:50;;;;;;;6.63;3.40;;;23.60;64.10;;;;;;21217741;28;20233;-67
2022/05/17 18:21:52;;;;;;;7.03;3.60;;;23.40;65.40;;;;;;21185559;28;20234;-69
2022/05/17 18:31:58;;;;;;;6.67;3.43;;;23.30;66.60;;;;;;21121183;28;20254;-67
2022/05/17 18:42:00;;;;;;;5.37;3.60;;;23.10;67.70;;;;;;21135416;28;20211;-70
2022/05/17 18:52:04;;;;;;;6.67;4.10;;;22.90;69.00;;;;;;21146193;28;20241;-67
2022/05/17 19:02:09;;;;;;;5.40;3.60;;;22.80;70.80;;;;;;21145799;28;20203;-63
2022/05/17 19:22:32;;;;;;;11.50;5.23;;;22.40;73.50;;;;;;21144361;28;20238;-67
2022/05/17 19:32:34;;;;;;;6.47;4.73;;;22.20;75.00;;;;;;21233945;28;20225;-63
2022/05/17 19:42:36;;;;;;;6.83;4.20;;;22.00;76.00;;;;;;21226872;28;20213;-65
2022/05/17 19:52:40;;;;;;;13.40;4.27;;;21.80;76.60;;;;;;21223458;28;20608;-67
2022/05/17 20:02:42;;;;;;;10.20;4.07;;;21.70;78.00;;;;;;21211580;28;20219;-61
2022/05/17 20:12:45;;;;;;;6.80;4.73;;;21.40;80.10;;;;;;21218643;28;20235;-63
2022/05/17 20:22:48;;;;;;;10.03;5.47;;;21.00;82.10;;;;;;21214629;28;20313;-67
2022/05/17 20:32:52;;;;;;;6.27;4.77;;;20.80;84.00;;;;;;21129144;28;20304;-69
2022/05/17 20:42:55;;;;;;;7.30;4.80;;;20.70;85.00;;;;;;21129222;28;20265;-66
2022/05/17 20:52:57;;;;;;;8.37;5.40;;;20.40;85.90;;;;;;21114995;28;20231;-66
2022/05/17 21:02:59;;;;;;;11.20;6.07;;;20.20;87.10;;;;;;21105439;28;20208;-65
2022/05/17 21:13:01;;;;;;;11.60;5.10;;;20.10;87.90;;;;;;21113913;28;20800;-62
2022/05/17 21:23:05;;;;;;;7.50;4.93;;;20.00;88.80;;;;;;21101237;28;20679;-63
2022/05/17 21:33:07;;;;;;;6.53;4.53;;;19.90;89.50;;;;;;21180821;28;20603;-62
2022/05/17 21:43:11;;;;;;;6.57;4.40;;;19.80;90.00;;;;;;21186332;28;20593;-63
2022/05/17 21:53:15;;;;;;;9.73;4.70;;;19.70;90.40;;;;;;21191198;28;20236;-63
2022/05/17 22:03:19;;;;;;;7.33;4.63;;;19.70;90.80;;;;;;21194739;28;20271;-63
2022/05/17 22:23:42;;;;;;;8.93;4.90;;;19.60;91.40;;;;;;21197233;28;20613;-63
2022/05/17 22:33:44;;;;;;;8.97;4.50;;;19.50;91.80;;;;;;21207852;28;20227;-62
2022/05/17 22:43:46;;;;;;;6.93;4.80;;;19.40;91.90;;;;;;21213024;28;20207;-61
2022/05/17 22:53:48;;;;;;;9.00;4.37;;;19.40;92.20;;;;;;21214745;28;20243;-62
2022/05/17 23:03:50;;;;;;;7.70;4.53;;;19.30;92.50;;;;;;21209665;28;20686;-64
2022/05/17 23:13:52;;;;;;;6.37;4.70;;;19.10;92.80;;;;;;21189370;28;20239;-65
2022/05/17 23:23:54;;;;;;;5.73;4.40;;;19.10;92.90;;;;;;21204206;28;20301;-62
2022/05/17 23:33:58;;;;;;;9.13;4.40;;;19.10;93.30;;;;;;21212020;28;20234;-62
2022/05/17 23:43:59;;;;;;;8.27;4.60;;;19.00;93.30;;;;;;21184741;28;20233;-63
2022/05/17 23:54:01;;;;;;;6.97;4.43;;;19.00;93.50;;;;;;21157615;28;20562;-62
